sensor_id;sensor_type;location;lat;lon;timestamp;P1;durP1;ratioP1;P2;durP2;ratioP2
75997;SDS011;64685;48.762;44.822;2024-03-29T00:04:52;28.42;;;10.70;;
75997;SDS011;64685;48.762;44.822;2024-03-29T00:09:55;27.38;;;11.13;;
75997;SDS011;64685;48.762;44.822;2024-03-29T00:14:58;27.45;;;11.38;;
75997;SDS011;64685;48.762;44.822;2024-03-29T00:20:00;29.17;;;12.35;;
75997;SDS011;64685;48.762;44.822;2024-03-29T00:25:04;34.55;;;13.05;;
75997;SDS011;64685;48.762;44.822;2024-03-29T00:30:08;35.40;;;13.23;;
75997;SDS011;64685;48.762;44.822;2024-03-29T00:35:14;31.58;;;13.60;;
75997;SDS011;64685;48.762;44.822;2024-03-29T00:40:22;26.92;;;11.95;;
75997;SDS011;64685;48.762;44.822;2024-03-29T00:45:29;29.70;;;12.02;;
75997;SDS011;64685;48.762;44.822;2024-03-29T00:50:32;24.65;;;11.35;;
75997;SDS011;64685;48.762;44.822;2024-03-29T00:55:34;31.35;;;11.70;;
75997;SDS011;64685;48.762;44.822;2024-03-29T01:00:37;29.38;;;12.57;;
75997;SDS011;64685;48.762;44.822;2024-03-29T01:05:39;35.75;;;12.85;;
75997;SDS011;64685;48.762;44.822;2024-03-29T01:10:42;27.17;;;13.40;;
75997;SDS011;64685;48.762;44.822;2024-03-29T01:15:46;24.95;;;9.80;;
75997;SDS011;64685;48.762;44.822;2024-03-29T01:20:48;34.75;;;11.80;;
75997;SDS011;64685;48.762;44.822;2024-03-29T01:25:51;34.63;;;13.38;;
75997;SDS011;64685;48.762;44.822;2024-03-29T01:30:54;25.38;;;9.70;;
75997;SDS011;64685;48.762;44.822;2024-03-29T01:35:57;20.90;;;9.75;;
75997;SDS011;64685;48.762;44.822;2024-03-29T01:41:00;19.65;;;8.65;;
75997;SDS011;64685;48.762;44.822;2024-03-29T01:46:02;20.80;;;7.82;;
75997;SDS011;64685;48.762;44.822;2024-03-29T01:51:13;19.83;;;7.88;;
75997;SDS011;64685;48.762;44.822;2024-03-29T01:56:23;13.73;;;7.03;;
75997;SDS011;64685;48.762;44.822;2024-03-29T02:01:28;15.23;;;6.22;;
75997;SDS011;64685;48.762;44.822;2024-03-29T02:06:32;18.42;;;8.20;;
75997;SDS011;64685;48.762;44.822;2024-03-29T02:11:34;18.25;;;7.50;;
75997;SDS011;64685;48.762;44.822;2024-03-29T02:21:45;15.80;;;6.38;;
75997;SDS011;64685;48.762;44.822;2024-03-29T02:26:54;19.50;;;6.60;;
75997;SDS011;64685;48.762;44.822;2024-03-29T02:31:58;26.17;;;9.63;;
75997;SDS011;64685;48.762;44.822;2024-03-29T02:37:07;27.08;;;9.90;;
75997;SDS011;64685;48.762;44.822;2024-03-29T02:42:09;31.05;;;12.20;;
75997;SDS011;64685;48.762;44.822;2024-03-29T02:47:15;18.95;;;7.85;;
75997;SDS011;64685;48.762;44.822;2024-03-29T02:52:17;28.23;;;11.02;;
75997;SDS011;64685;48.762;44.822;2024-03-29T02:57:20;21.48;;;9.85;;
75997;SDS011;64685;48.762;44.822;2024-03-29T03:02:23;22.60;;;9.73;;
75997;SDS011;64685;48.762;44.822;2024-03-29T03:07:25;28.67;;;9.18;;
75997;SDS011;64685;48.762;44.822;2024-03-29T03:12:46;22.17;;;7.47;;
75997;SDS011;64685;48.762;44.822;2024-03-29T03:17:49;16.45;;;5.22;;
75997;SDS011;64685;48.762;44.822;2024-03-29T03:22:52;14.77;;;6.03;;
75997;SDS011;64685;48.762;44.822;2024-03-29T03:27:54;26.67;;;8.77;;
75997;SDS011;64685;48.762;44.822;2024-03-29T03:32:57;18.92;;;5.60;;
75997;SDS011;64685;48.762;44.822;2024-03-29T03:37:59;18.17;;;7.00;;
75997;SDS011;64685;48.762;44.822;2024-03-29T03:43:04;21.58;;;6.32;;
75997;SDS011;64685;48.762;44.822;2024-03-29T03:48:10;20.58;;;6.78;;
75997;SDS011;64685;48.762;44.822;2024-03-29T03:53:13;16.33;;;6.43;;
75997;SDS011;64685;48.762;44.822;2024-03-29T03:58:16;16.95;;;6.10;;
75997;SDS011;64685;48.762;44.822;2024-03-29T04:03:19;21.63;;;6.38;;
75997;SDS011;64685;48.762;44.822;2024-03-29T04:08:21;20.70;;;6.78;;
75997;SDS011;64685;48.762;44.822;2024-03-29T04:13:26;19.45;;;8.07;;
75997;SDS011;64685;48.762;44.822;2024-03-29T04:18:32;21.50;;;8.27;;
75997;SDS011;64685;48.762;44.822;2024-03-29T04:23:38;22.33;;;10.57;;
75997;SDS011;64685;48.762;44.822;2024-03-29T04:28:40;21.58;;;9.68;;
75997;SDS011;64685;48.762;44.822;2024-03-29T04:33:43;15.20;;;4.82;;
75997;SDS011;64685;48.762;44.822;2024-03-29T04:38:46;9.68;;;3.88;;
75997;SDS011;64685;48.762;44.822;2024-03-29T04:43:50;9.38;;;3.60;;
75997;SDS011;64685;48.762;44.822;2024-03-29T04:48:53;10.95;;;2.90;;
75997;SDS011;64685;48.762;44.822;2024-03-29T04:53:58;6.57;;;2.20;;
75997;SDS011;64685;48.762;44.822;2024-03-29T04:59:01;6.78;;;2.47;;
75997;SDS011;64685;48.762;44.822;2024-03-29T05:04:04;5.90;;;2.03;;
75997;SDS011;64685;48.762;44.822;2024-03-29T05:09:07;7.95;;;3.38;;
75997;SDS011;64685;48.762;44.822;2024-03-29T05:14:14;10.93;;;4.68;;
75997;SDS011;64685;48.762;44.822;2024-03-29T05:19:19;15.18;;;5.40;;
75997;SDS011;64685;48.762;44.822;2024-03-29T05:24:22;10.60;;;5.15;;
75997;SDS011;64685;48.762;44.822;2024-03-29T05:29:25;11.48;;;4.82;;
75997;SDS011;64685;48.762;44.822;2024-03-29T05:34:31;9.93;;;3.88;;
75997;SDS011;64685;48.762;44.822;2024-03-29T05:39:33;9.15;;;3.33;;
75997;SDS011;64685;48.762;44.822;2024-03-29T05:44:39;6.65;;;2.70;;
75997;SDS011;64685;48.762;44.822;2024-03-29T05:49:41;5.78;;;2.03;;
75997;SDS011;64685;48.762;44.822;2024-03-29T05:54:45;2.92;;;1.10;;
75997;SDS011;64685;48.762;44.822;2024-03-29T05:59:47;3.47;;;1.40;;
75997;SDS011;64685;48.762;44.822;2024-03-29T06:04:50;5.40;;;1.58;;
75997;SDS011;64685;48.762;44.822;2024-03-29T06:09:52;5.78;;;2.28;;
75997;SDS011;64685;48.762;44.822;2024-03-29T06:14:55;4.43;;;1.35;;
75997;SDS011;64685;48.762;44.822;2024-03-29T06:20:16;5.43;;;1.58;;
75997;SDS011;64685;48.762;44.822;2024-03-29T06:25:19;4.88;;;1.65;;
75997;SDS011;64685;48.762;44.822;2024-03-29T06:30:22;7.05;;;1.98;;
75997;SDS011;64685;48.762;44.822;2024-03-29T06:49:31;4.25;;;1.60;;
75997;SDS011;64685;48.762;44.822;2024-03-29T06:54:36;3.25;;;1.17;;
75997;SDS011;64685;48.762;44.822;2024-03-29T06:59:39;4.97;;;1.25;;
75997;SDS011;64685;48.762;44.822;2024-03-29T07:04:42;3.97;;;1.27;;
75997;SDS011;64685;48.762;44.822;2024-03-29T07:09:45;3.75;;;1.10;;
75997;SDS011;64685;48.762;44.822;2024-03-29T07:14:47;5.95;;;1.35;;
75997;SDS011;64685;48.762;44.822;2024-03-29T07:19:53;3.65;;;1.10;;
75997;SDS011;64685;48.762;44.822;2024-03-29T07:24:56;4.65;;;1.30;;
75997;SDS011;64685;48.762;44.822;2024-03-29T07:29:59;6.32;;;1.67;;
75997;SDS011;64685;48.762;44.822;2024-03-29T07:35:10;11.90;;;1.52;;
75997;SDS011;64685;48.762;44.822;2024-03-29T07:40:17;3.88;;;1.20;;
75997;SDS011;64685;48.762;44.822;2024-03-29T07:45:19;5.25;;;1.73;;
75997;SDS011;64685;48.762;44.822;2024-03-29T07:50:22;4.00;;;1.02;;
75997;SDS011;64685;48.762;44.822;2024-03-29T07:55:28;3.35;;;1.27;;
75997;SDS011;64685;48.762;44.822;2024-03-29T08:00:31;4.45;;;1.30;;
75997;SDS011;64685;48.762;44.822;2024-03-29T08:05:35;4.00;;;1.33;;
75997;SDS011;64685;48.762;44.822;2024-03-29T08:10:38;5.63;;;1.30;;
75997;SDS011;64685;48.762;44.822;2024-03-29T08:15:41;4.07;;;1.13;;
75997;SDS011;64685;48.762;44.822;2024-03-29T08:20:46;2.72;;;1.05;;
75997;SDS011;64685;48.762;44.822;2024-03-29T08:25:49;3.55;;;1.20;;
75997;SDS011;64685;48.762;44.822;2024-03-29T08:30:59;2.92;;;1.10;;
75997;SDS011;64685;48.762;44.822;2024-03-29T08:36:06;4.57;;;1.17;;
75997;SDS011;64685;48.762;44.822;2024-03-29T08:41:10;3.42;;;0.98;;
75997;SDS011;64685;48.762;44.822;2024-03-29T08:46:12;2.22;;;1.20;;
75997;SDS011;64685;48.762;44.822;2024-03-29T08:51:15;2.78;;;1.50;;
75997;SDS011;64685;48.762;44.822;2024-03-29T08:56:18;3.33;;;1.48;;
75997;SDS011;64685;48.762;44.822;2024-03-29T09:01:21;5.75;;;1.48;;
75997;SDS011;64685;48.762;44.822;2024-03-29T09:06:23;3.38;;;1.45;;
75997;SDS011;64685;48.762;44.822;2024-03-29T09:11:26;5.03;;;1.30;;
75997;SDS011;64685;48.762;44.822;2024-03-29T09:16:32;3.15;;;1.08;;
75997;SDS011;64685;48.762;44.822;2024-03-29T09:21:35;4.45;;;1.20;;
75997;SDS011;64685;48.762;44.822;2024-03-29T09:26:37;3.55;;;1.23;;
75997;SDS011;64685;48.762;44.822;2024-03-29T09:31:42;6.85;;;1.05;;
75997;SDS011;64685;48.762;44.822;2024-03-29T09:36:44;2.55;;;0.90;;
75997;SDS011;64685;48.762;44.822;2024-03-29T09:41:47;4.10;;;1.10;;
75997;SDS011;64685;48.762;44.822;2024-03-29T09:46:49;5.10;;;1.30;;
75997;SDS011;64685;48.762;44.822;2024-03-29T09:51:53;2.35;;;0.82;;
75997;SDS011;64685;48.762;44.822;2024-03-29T09:56:56;2.80;;;0.70;;
75997;SDS011;64685;48.762;44.822;2024-03-29T10:01:59;4.88;;;1.40;;
75997;SDS011;64685;48.762;44.822;2024-03-29T10:07:01;4.40;;;1.23;;
75997;SDS011;64685;48.762;44.822;2024-03-29T10:12:05;4.05;;;1.40;;
75997;SDS011;64685;48.762;44.822;2024-03-29T10:17:08;2.45;;;0.70;;
75997;SDS011;64685;48.762;44.822;2024-03-29T10:22:10;3.13;;;1.27;;
75997;SDS011;64685;48.762;44.822;2024-03-29T10:27:14;5.00;;;0.80;;
75997;SDS011;64685;48.762;44.822;2024-03-29T10:32:17;2.47;;;1.00;;
75997;SDS011;64685;48.762;44.822;2024-03-29T10:37:19;4.22;;;0.98;;
75997;SDS011;64685;48.762;44.822;2024-03-29T10:42:36;6.05;;;0.93;;
75997;SDS011;64685;48.762;44.822;2024-03-29T10:47:43;2.85;;;0.98;;
75997;SDS011;64685;48.762;44.822;2024-03-29T10:52:47;2.95;;;0.88;;
75997;SDS011;64685;48.762;44.822;2024-03-29T10:57:50;4.20;;;1.15;;
75997;SDS011;64685;48.762;44.822;2024-03-29T11:08:08;3.97;;;1.02;;
75997;SDS011;64685;48.762;44.822;2024-03-29T11:13:12;3.08;;;0.82;;
75997;SDS011;64685;48.762;44.822;2024-03-29T11:18:17;3.22;;;1.08;;
75997;SDS011;64685;48.762;44.822;2024-03-29T11:28:27;3.25;;;0.93;;
75997;SDS011;64685;48.762;44.822;2024-03-29T11:38:46;2.85;;;0.98;;
75997;SDS011;64685;48.762;44.822;2024-03-29T11:48:53;6.05;;;1.20;;
75997;SDS011;64685;48.762;44.822;2024-03-29T11:53:55;3.88;;;1.45;;
75997;SDS011;64685;48.762;44.822;2024-03-29T11:58:58;4.90;;;1.45;;
75997;SDS011;64685;48.762;44.822;2024-03-29T12:04:01;4.22;;;1.00;;
75997;SDS011;64685;48.762;44.822;2024-03-29T12:09:04;3.20;;;1.58;;
75997;SDS011;64685;48.762;44.822;2024-03-29T12:14:12;5.15;;;1.08;;
75997;SDS011;64685;48.762;44.822;2024-03-29T12:19:24;3.47;;;1.20;;
75997;SDS011;64685;48.762;44.822;2024-03-29T12:24:26;5.55;;;1.38;;
75997;SDS011;64685;48.762;44.822;2024-03-29T12:29:28;3.65;;;1.20;;
75997;SDS011;64685;48.762;44.822;2024-03-29T12:34:31;6.35;;;1.25;;
75997;SDS011;64685;48.762;44.822;2024-03-29T12:39:33;4.57;;;1.42;;
75997;SDS011;64685;48.762;44.822;2024-03-29T12:44:37;4.22;;;1.10;;
75997;SDS011;64685;48.762;44.822;2024-03-29T12:49:40;5.57;;;1.50;;
75997;SDS011;64685;48.762;44.822;2024-03-29T12:54:43;4.97;;;1.58;;
75997;SDS011;64685;48.762;44.822;2024-03-29T12:59:49;3.83;;;1.45;;
75997;SDS011;64685;48.762;44.822;2024-03-29T13:04:51;6.20;;;1.40;;
75997;SDS011;64685;48.762;44.822;2024-03-29T13:09:54;4.47;;;1.70;;
75997;SDS011;64685;48.762;44.822;2024-03-29T13:14:56;4.05;;;1.40;;
75997;SDS011;64685;48.762;44.822;2024-03-29T13:19:58;4.20;;;1.73;;
75997;SDS011;64685;48.762;44.822;2024-03-29T13:25:01;6.85;;;2.30;;
75997;SDS011;64685;48.762;44.822;2024-03-29T13:30:07;4.10;;;1.13;;
75997;SDS011;64685;48.762;44.822;2024-03-29T13:35:10;3.78;;;1.35;;
75997;SDS011;64685;48.762;44.822;2024-03-29T13:40:13;5.00;;;1.60;;
75997;SDS011;64685;48.762;44.822;2024-03-29T13:45:19;5.80;;;1.95;;
75997;SDS011;64685;48.762;44.822;2024-03-29T13:50:22;7.43;;;2.28;;
75997;SDS011;64685;48.762;44.822;2024-03-29T13:55:24;2.08;;;1.00;;
75997;SDS011;64685;48.762;44.822;2024-03-29T14:05:30;5.78;;;2.45;;
75997;SDS011;64685;48.762;44.822;2024-03-29T14:10:33;5.95;;;2.00;;
75997;SDS011;64685;48.762;44.822;2024-03-29T14:15:37;10.95;;;3.80;;
75997;SDS011;64685;48.762;44.822;2024-03-29T14:20:40;11.73;;;4.45;;
75997;SDS011;64685;48.762;44.822;2024-03-29T14:25:42;7.35;;;2.55;;
75997;SDS011;64685;48.762;44.822;2024-03-29T14:30:45;7.90;;;2.72;;
75997;SDS011;64685;48.762;44.822;2024-03-29T14:35:47;6.45;;;2.97;;
75997;SDS011;64685;48.762;44.822;2024-03-29T14:40:51;8.02;;;2.30;;
75997;SDS011;64685;48.762;44.822;2024-03-29T14:45:53;6.80;;;3.05;;
75997;SDS011;64685;48.762;44.822;2024-03-29T14:50:55;7.63;;;3.25;;
75997;SDS011;64685;48.762;44.822;2024-03-29T14:55:59;9.13;;;3.45;;
75997;SDS011;64685;48.762;44.822;2024-03-29T15:01:04;10.25;;;3.50;;
75997;SDS011;64685;48.762;44.822;2024-03-29T15:06:09;11.75;;;4.10;;
75997;SDS011;64685;48.762;44.822;2024-03-29T15:11:11;7.00;;;2.97;;
75997;SDS011;64685;48.762;44.822;2024-03-29T15:16:13;6.18;;;2.70;;
75997;SDS011;64685;48.762;44.822;2024-03-29T15:21:16;7.95;;;2.97;;
75997;SDS011;64685;48.762;44.822;2024-03-29T15:26:20;10.65;;;3.72;;
75997;SDS011;64685;48.762;44.822;2024-03-29T15:31:24;9.63;;;3.67;;
75997;SDS011;64685;48.762;44.822;2024-03-29T15:36:28;4.75;;;2.20;;
75997;SDS011;64685;48.762;44.822;2024-03-29T15:41:31;12.88;;;4.47;;
75997;SDS011;64685;48.762;44.822;2024-03-29T15:46:35;10.05;;;3.00;;
75997;SDS011;64685;48.762;44.822;2024-03-29T15:51:37;6.72;;;2.83;;
75997;SDS011;64685;48.762;44.822;2024-03-29T15:56:40;10.45;;;3.42;;
75997;SDS011;64685;48.762;44.822;2024-03-29T16:01:42;6.82;;;2.80;;
75997;SDS011;64685;48.762;44.822;2024-03-29T16:06:44;7.15;;;2.20;;
75997;SDS011;64685;48.762;44.822;2024-03-29T16:11:47;8.05;;;1.73;;
75997;SDS011;64685;48.762;44.822;2024-03-29T16:16:49;5.90;;;1.55;;
75997;SDS011;64685;48.762;44.822;2024-03-29T16:21:51;7.20;;;1.95;;
75997;SDS011;64685;48.762;44.822;2024-03-29T16:26:54;5.22;;;2.72;;
75997;SDS011;64685;48.762;44.822;2024-03-29T16:31:56;3.78;;;1.25;;
75997;SDS011;64685;48.762;44.822;2024-03-29T16:36:59;6.38;;;2.03;;
75997;SDS011;64685;48.762;44.822;2024-03-29T16:42:03;10.52;;;2.63;;
75997;SDS011;64685;48.762;44.822;2024-03-29T16:47:06;15.52;;;3.80;;
75997;SDS011;64685;48.762;44.822;2024-03-29T16:52:10;5.35;;;1.92;;
75997;SDS011;64685;48.762;44.822;2024-03-29T16:57:12;10.35;;;2.28;;
75997;SDS011;64685;48.762;44.822;2024-03-29T17:02:15;3.33;;;1.40;;
75997;SDS011;64685;48.762;44.822;2024-03-29T17:07:18;3.85;;;1.48;;
75997;SDS011;64685;48.762;44.822;2024-03-29T17:12:21;3.90;;;1.63;;
75997;SDS011;64685;48.762;44.822;2024-03-29T17:17:26;9.07;;;1.83;;
75997;SDS011;64685;48.762;44.822;2024-03-29T17:22:32;7.15;;;2.10;;
75997;SDS011;64685;48.762;44.822;2024-03-29T17:27:37;6.13;;;1.50;;
75997;SDS011;64685;48.762;44.822;2024-03-29T17:32:40;2.28;;;1.33;;
75997;SDS011;64685;48.762;44.822;2024-03-29T17:37:42;3.33;;;1.67;;
75997;SDS011;64685;48.762;44.822;2024-03-29T17:42:45;5.32;;;2.03;;
75997;SDS011;64685;48.762;44.822;2024-03-29T17:47:47;5.78;;;1.98;;
75997;SDS011;64685;48.762;44.822;2024-03-29T17:52:50;5.93;;;1.85;;
75997;SDS011;64685;48.762;44.822;2024-03-29T17:57:52;7.43;;;2.30;;
75997;SDS011;64685;48.762;44.822;2024-03-29T18:02:55;4.00;;;1.42;;
75997;SDS011;64685;48.762;44.822;2024-03-29T18:07:58;3.17;;;1.42;;
75997;SDS011;64685;48.762;44.822;2024-03-29T18:13:00;3.08;;;1.30;;
75997;SDS011;64685;48.762;44.822;2024-03-29T18:18:02;5.43;;;1.80;;
75997;SDS011;64685;48.762;44.822;2024-03-29T18:23:05;3.05;;;1.50;;
75997;SDS011;64685;48.762;44.822;2024-03-29T18:28:07;3.15;;;1.40;;
75997;SDS011;64685;48.762;44.822;2024-03-29T18:33:09;3.80;;;1.38;;
75997;SDS011;64685;48.762;44.822;2024-03-29T18:38:13;6.80;;;1.80;;
75997;SDS011;64685;48.762;44.822;2024-03-29T18:43:15;4.88;;;1.42;;
75997;SDS011;64685;48.762;44.822;2024-03-29T18:48:18;5.20;;;1.83;;
75997;SDS011;64685;48.762;44.822;2024-03-29T18:53:20;2.53;;;1.08;;
75997;SDS011;64685;48.762;44.822;2024-03-29T18:58:23;4.82;;;2.10;;
75997;SDS011;64685;48.762;44.822;2024-03-29T19:03:26;5.38;;;2.05;;
75997;SDS011;64685;48.762;44.822;2024-03-29T19:08:28;3.90;;;1.35;;
75997;SDS011;64685;48.762;44.822;2024-03-29T19:13:31;7.18;;;2.38;;
75997;SDS011;64685;48.762;44.822;2024-03-29T19:18:33;6.88;;;3.05;;
75997;SDS011;64685;48.762;44.822;2024-03-29T19:23:36;5.70;;;2.20;;
75997;SDS011;64685;48.762;44.822;2024-03-29T19:28:38;5.55;;;2.28;;
75997;SDS011;64685;48.762;44.822;2024-03-29T19:33:40;5.50;;;2.25;;
75997;SDS011;64685;48.762;44.822;2024-03-29T19:38:42;3.00;;;1.63;;
75997;SDS011;64685;48.762;44.822;2024-03-29T19:43:45;3.08;;;1.27;;
75997;SDS011;64685;48.762;44.822;2024-03-29T19:48:47;7.35;;;2.70;;
75997;SDS011;64685;48.762;44.822;2024-03-29T19:53:50;8.02;;;2.33;;
75997;SDS011;64685;48.762;44.822;2024-03-29T19:58:53;5.53;;;2.38;;
75997;SDS011;64685;48.762;44.822;2024-03-29T20:03:58;3.17;;;1.75;;
75997;SDS011;64685;48.762;44.822;2024-03-29T20:09:00;5.75;;;2.40;;
75997;SDS011;64685;48.762;44.822;2024-03-29T20:14:03;4.15;;;1.48;;
75997;SDS011;64685;48.762;44.822;2024-03-29T20:19:05;4.93;;;1.83;;
75997;SDS011;64685;48.762;44.822;2024-03-29T20:24:11;3.42;;;1.70;;
75997;SDS011;64685;48.762;44.822;2024-03-29T20:29:13;4.38;;;1.58;;
75997;SDS011;64685;48.762;44.822;2024-03-29T20:34:16;4.70;;;1.65;;
75997;SDS011;64685;48.762;44.822;2024-03-29T20:39:18;4.15;;;1.65;;
75997;SDS011;64685;48.762;44.822;2024-03-29T20:44:21;3.85;;;1.50;;
75997;SDS011;64685;48.762;44.822;2024-03-29T20:49:24;3.42;;;1.40;;
75997;SDS011;64685;48.762;44.822;2024-03-29T20:54:27;4.43;;;1.50;;
75997;SDS011;64685;48.762;44.822;2024-03-29T20:59:32;3.03;;;1.27;;
75997;SDS011;64685;48.762;44.822;2024-03-29T21:04:37;3.40;;;1.50;;
75997;SDS011;64685;48.762;44.822;2024-03-29T21:09:57;4.43;;;1.80;;
75997;SDS011;64685;48.762;44.822;2024-03-29T21:15:04;4.18;;;1.40;;
75997;SDS011;64685;48.762;44.822;2024-03-29T21:20:07;3.40;;;1.13;;
75997;SDS011;64685;48.762;44.822;2024-03-29T21:25:11;4.03;;;1.13;;
75997;SDS011;64685;48.762;44.822;2024-03-29T21:30:15;6.43;;;1.50;;
75997;SDS011;64685;48.762;44.822;2024-03-29T21:35:19;2.55;;;1.40;;
75997;SDS011;64685;48.762;44.822;2024-03-29T21:40:24;4.15;;;1.70;;
75997;SDS011;64685;48.762;44.822;2024-03-29T21:45:26;4.03;;;1.60;;
75997;SDS011;64685;48.762;44.822;2024-03-29T21:50:29;4.13;;;1.55;;
75997;SDS011;64685;48.762;44.822;2024-03-29T21:55:31;4.78;;;1.77;;
75997;SDS011;64685;48.762;44.822;2024-03-29T22:00:35;1.90;;;1.00;;
75997;SDS011;64685;48.762;44.822;2024-03-29T22:05:37;3.47;;;1.02;;
75997;SDS011;64685;48.762;44.822;2024-03-29T22:10:42;4.28;;;1.63;;
75997;SDS011;64685;48.762;44.822;2024-03-29T22:15:45;2.13;;;1.15;;
75997;SDS011;64685;48.762;44.822;2024-03-29T22:20:47;2.72;;;1.38;;
75997;SDS011;64685;48.762;44.822;2024-03-29T22:25:49;2.60;;;1.08;;
75997;SDS011;64685;48.762;44.822;2024-03-29T22:30:52;5.10;;;1.25;;
75997;SDS011;64685;48.762;44.822;2024-03-29T22:35:54;4.40;;;1.63;;
75997;SDS011;64685;48.762;44.822;2024-03-29T22:40:57;4.18;;;1.42;;
75997;SDS011;64685;48.762;44.822;2024-03-29T22:45:59;4.47;;;1.85;;
75997;SDS011;64685;48.762;44.822;2024-03-29T22:51:02;4.28;;;1.58;;
75997;SDS011;64685;48.762;44.822;2024-03-29T22:56:05;7.13;;;2.53;;
75997;SDS011;64685;48.762;44.822;2024-03-29T23:01:07;4.72;;;1.80;;
75997;SDS011;64685;48.762;44.822;2024-03-29T23:06:10;3.35;;;1.45;;
75997;SDS011;64685;48.762;44.822;2024-03-29T23:11:12;5.82;;;1.83;;
75997;SDS011;64685;48.762;44.822;2024-03-29T23:16:14;4.80;;;2.10;;
75997;SDS011;64685;48.762;44.822;2024-03-29T23:21:18;3.20;;;1.63;;
75997;SDS011;64685;48.762;44.822;2024-03-29T23:26:21;5.20;;;2.13;;
75997;SDS011;64685;48.762;44.822;2024-03-29T23:31:23;4.72;;;1.98;;
75997;SDS011;64685;48.762;44.822;2024-03-29T23:36:25;6.53;;;2.70;;
75997;SDS011;64685;48.762;44.822;2024-03-29T23:41:28;6.55;;;2.92;;
75997;SDS011;64685;48.762;44.822;2024-03-29T23:46:30;7.30;;;3.03;;
75997;SDS011;64685;48.762;44.822;2024-03-29T23:51:32;7.50;;;2.97;;
75997;SDS011;64685;48.762;44.822;2024-03-29T23:56:36;7.05;;;3.03;;
